sensor_id;sensor_type;location;lat;lon;timestamp;temperature;humidity
31129;DHT22;17777;48.770;8.944;2024-03-02T00:00:22;12.20;53.80
31129;DHT22;17777;48.770;8.944;2024-03-02T00:02:50;12.20;53.80
31129;DHT22;17777;48.770;8.944;2024-03-02T00:05:21;12.20;53.80
31129;DHT22;17777;48.770;8.944;2024-03-02T00:07:57;12.20;53.70
31129;DHT22;17777;48.770;8.944;2024-03-02T00:10:37;12.20;53.80
31129;DHT22;17777;48.770;8.944;2024-03-02T00:13:07;12.20;53.80
31129;DHT22;17777;48.770;8.944;2024-03-02T00:18:40;12.20;53.80
31129;DHT22;17777;48.770;8.944;2024-03-02T00:21:07;12.20;53.80
31129;DHT22;17777;48.770;8.944;2024-03-02T00:23:36;12.20;53.70
31129;DHT22;17777;48.770;8.944;2024-03-02T00:26:02;12.20;53.70
31129;DHT22;17777;48.770;8.944;2024-03-02T00:28:34;12.20;53.80
31129;DHT22;17777;48.770;8.944;2024-03-02T00:31:08;12.20;53.80
31129;DHT22;17777;48.770;8.944;2024-03-02T00:33:46;12.20;53.90
31129;DHT22;17777;48.770;8.944;2024-03-02T00:36:25;12.20;53.90
31129;DHT22;17777;48.770;8.944;2024-03-02T00:38:53;12.20;53.90
31129;DHT22;17777;48.770;8.944;2024-03-02T00:41:31;12.20;53.80
31129;DHT22;17777;48.770;8.944;2024-03-02T00:46:25;12.20;53.80
31129;DHT22;17777;48.770;8.944;2024-03-02T00:51:24;12.20;53.80
31129;DHT22;17777;48.770;8.944;2024-03-02T00:53:52;12.20;53.80
31129;DHT22;17777;48.770;8.944;2024-03-02T00:56:24;12.20;53.80
31129;DHT22;17777;48.770;8.944;2024-03-02T00:58:50;12.20;53.80
31129;DHT22;17777;48.770;8.944;2024-03-02T01:01:17;12.20;53.70
31129;DHT22;17777;48.770;8.944;2024-03-02T01:03:43;12.20;53.80
31129;DHT22;17777;48.770;8.944;2024-03-02T01:06:09;12.20;53.80
31129;DHT22;17777;48.770;8.944;2024-03-02T01:08:35;12.20;53.80
31129;DHT22;17777;48.770;8.944;2024-03-02T01:11:02;12.20;53.80
31129;DHT22;17777;48.770;8.944;2024-03-02T01:13:28;12.20;53.80
31129;DHT22;17777;48.770;8.944;2024-03-02T01:15:55;12.10;53.90
31129;DHT22;17777;48.770;8.944;2024-03-02T01:18:21;12.10;53.90
31129;DHT22;17777;48.770;8.944;2024-03-02T01:20:48;12.10;54.00
31129;DHT22;17777;48.770;8.944;2024-03-02T01:23:17;12.10;54.00
31129;DHT22;17777;48.770;8.944;2024-03-02T01:25:46;12.00;54.00
31129;DHT22;17777;48.770;8.944;2024-03-02T01:28:12;12.00;54.10
31129;DHT22;17777;48.770;8.944;2024-03-02T01:30:39;12.00;54.20
31129;DHT22;17777;48.770;8.944;2024-03-02T01:33:04;12.00;54.20
31129;DHT22;17777;48.770;8.944;2024-03-02T01:35:33;12.00;54.30
31129;DHT22;17777;48.770;8.944;2024-03-02T01:38:03;12.00;54.30
31129;DHT22;17777;48.770;8.944;2024-03-02T01:40:32;12.00;54.30
31129;DHT22;17777;48.770;8.944;2024-03-02T01:43:03;12.00;54.30
31129;DHT22;17777;48.770;8.944;2024-03-02T01:45:29;12.00;54.20
31129;DHT22;17777;48.770;8.944;2024-03-02T01:47:55;12.00;54.20
31129;DHT22;17777;48.770;8.944;2024-03-02T01:50:28;12.00;54.10
31129;DHT22;17777;48.770;8.944;2024-03-02T01:52:57;12.00;54.10
31129;DHT22;17777;48.770;8.944;2024-03-02T01:55:23;12.00;54.00
31129;DHT22;17777;48.770;8.944;2024-03-02T01:57:50;12.00;53.90
31129;DHT22;17777;48.770;8.944;2024-03-02T02:00:17;12.00;53.90
31129;DHT22;17777;48.770;8.944;2024-03-02T02:02:44;12.00;53.90
31129;DHT22;17777;48.770;8.944;2024-03-02T02:05:10;12.00;53.90
31129;DHT22;17777;48.770;8.944;2024-03-02T02:07:37;12.00;53.80
31129;DHT22;17777;48.770;8.944;2024-03-02T02:10:03;12.00;53.90
31129;DHT22;17777;48.770;8.944;2024-03-02T02:12:29;12.00;53.80
31129;DHT22;17777;48.770;8.944;2024-03-02T02:14:54;11.90;53.80
31129;DHT22;17777;48.770;8.944;2024-03-02T02:17:20;11.90;53.90
31129;DHT22;17777;48.770;8.944;2024-03-02T02:19:46;11.90;53.80
31129;DHT22;17777;48.770;8.944;2024-03-02T02:22:12;11.90;53.70
31129;DHT22;17777;48.770;8.944;2024-03-02T02:24:41;11.90;53.70
31129;DHT22;17777;48.770;8.944;2024-03-02T02:27:08;11.90;53.70
31129;DHT22;17777;48.770;8.944;2024-03-02T02:29:35;11.90;53.70
31129;DHT22;17777;48.770;8.944;2024-03-02T02:32:01;11.90;53.60
31129;DHT22;17777;48.770;8.944;2024-03-02T02:34:28;11.90;53.60
31129;DHT22;17777;48.770;8.944;2024-03-02T02:36:54;11.90;53.60
31129;DHT22;17777;48.770;8.944;2024-03-02T02:39:21;11.90;53.50
31129;DHT22;17777;48.770;8.944;2024-03-02T02:41:48;11.90;53.50
31129;DHT22;17777;48.770;8.944;2024-03-02T02:44:14;11.80;53.50
31129;DHT22;17777;48.770;8.944;2024-03-02T02:46:40;11.80;53.60
31129;DHT22;17777;48.770;8.944;2024-03-02T02:49:06;11.70;53.60
31129;DHT22;17777;48.770;8.944;2024-03-02T02:51:32;11.70;53.60
31129;DHT22;17777;48.770;8.944;2024-03-02T02:53:58;11.70;53.70
31129;DHT22;17777;48.770;8.944;2024-03-02T02:56:24;11.60;53.70
31129;DHT22;17777;48.770;8.944;2024-03-02T02:58:50;11.60;53.70
31129;DHT22;17777;48.770;8.944;2024-03-02T03:01:16;11.60;53.80
31129;DHT22;17777;48.770;8.944;2024-03-02T03:03:43;11.60;53.80
31129;DHT22;17777;48.770;8.944;2024-03-02T03:06:10;11.60;53.80
31129;DHT22;17777;48.770;8.944;2024-03-02T03:08:36;11.60;53.80
31129;DHT22;17777;48.770;8.944;2024-03-02T03:11:03;11.60;53.80
31129;DHT22;17777;48.770;8.944;2024-03-02T03:13:31;11.50;53.80
31129;DHT22;17777;48.770;8.944;2024-03-02T03:15:57;11.50;53.90
31129;DHT22;17777;48.770;8.944;2024-03-02T03:18:23;11.50;53.80
31129;DHT22;17777;48.770;8.944;2024-03-02T03:20:49;11.50;53.80
31129;DHT22;17777;48.770;8.944;2024-03-02T03:23:15;11.50;53.90
31129;DHT22;17777;48.770;8.944;2024-03-02T03:25:43;11.50;53.90
31129;DHT22;17777;48.770;8.944;2024-03-02T03:28:09;11.50;53.90
31129;DHT22;17777;48.770;8.944;2024-03-02T03:30:38;11.40;53.80
31129;DHT22;17777;48.770;8.944;2024-03-02T03:33:05;11.40;53.90
31129;DHT22;17777;48.770;8.944;2024-03-02T03:35:32;11.50;53.90
31129;DHT22;17777;48.770;8.944;2024-03-02T03:37:58;11.40;53.90
31129;DHT22;17777;48.770;8.944;2024-03-02T03:40:24;11.40;53.90
31129;DHT22;17777;48.770;8.944;2024-03-02T03:42:50;11.40;53.90
31129;DHT22;17777;48.770;8.944;2024-03-02T03:45:16;11.30;54.00
31129;DHT22;17777;48.770;8.944;2024-03-02T03:47:42;11.20;54.00
31129;DHT22;17777;48.770;8.944;2024-03-02T03:50:08;11.20;54.10
31129;DHT22;17777;48.770;8.944;2024-03-02T03:52:34;11.20;54.10
31129;DHT22;17777;48.770;8.944;2024-03-02T03:55:00;11.20;54.20
31129;DHT22;17777;48.770;8.944;2024-03-02T03:57:26;11.20;54.20
31129;DHT22;17777;48.770;8.944;2024-03-02T03:59:53;11.20;54.20
31129;DHT22;17777;48.770;8.944;2024-03-02T04:02:19;11.20;54.10
31129;DHT22;17777;48.770;8.944;2024-03-02T04:04:45;11.20;54.70
31129;DHT22;17777;48.770;8.944;2024-03-02T04:07:11;11.20;54.00
31129;DHT22;17777;48.770;8.944;2024-03-02T04:09:37;11.20;54.00
31129;DHT22;17777;48.770;8.944;2024-03-02T04:12:03;11.20;54.00
31129;DHT22;17777;48.770;8.944;2024-03-02T04:14:29;11.20;54.00
31129;DHT22;17777;48.770;8.944;2024-03-02T04:16:55;11.20;53.90
31129;DHT22;17777;48.770;8.944;2024-03-02T04:19:21;11.20;53.90
31129;DHT22;17777;48.770;8.944;2024-03-02T04:21:46;11.00;53.80
31129;DHT22;17777;48.770;8.944;2024-03-02T04:24:12;11.00;54.00
31129;DHT22;17777;48.770;8.944;2024-03-02T04:26:38;11.00;54.20
31129;DHT22;17777;48.770;8.944;2024-03-02T04:29:04;10.90;54.20
31129;DHT22;17777;48.770;8.944;2024-03-02T04:31:29;10.90;54.40
31129;DHT22;17777;48.770;8.944;2024-03-02T04:33:55;10.80;54.50
31129;DHT22;17777;48.770;8.944;2024-03-02T04:36:21;10.90;54.60
31129;DHT22;17777;48.770;8.944;2024-03-02T04:38:47;10.80;54.60
31129;DHT22;17777;48.770;8.944;2024-03-02T04:41:13;10.80;54.60
31129;DHT22;17777;48.770;8.944;2024-03-02T04:43:39;10.80;54.60
31129;DHT22;17777;48.770;8.944;2024-03-02T04:46:05;10.80;54.60
31129;DHT22;17777;48.770;8.944;2024-03-02T04:48:33;10.80;54.70
31129;DHT22;17777;48.770;8.944;2024-03-02T04:50:59;10.80;54.70
31129;DHT22;17777;48.770;8.944;2024-03-02T04:53:25;10.80;54.60
31129;DHT22;17777;48.770;8.944;2024-03-02T04:55:51;10.80;54.60
31129;DHT22;17777;48.770;8.944;2024-03-02T04:58:19;10.80;54.60
31129;DHT22;17777;48.770;8.944;2024-03-02T05:00:45;10.80;54.60
31129;DHT22;17777;48.770;8.944;2024-03-02T05:03:12;10.70;54.70
31129;DHT22;17777;48.770;8.944;2024-03-02T05:05:38;10.80;54.80
31129;DHT22;17777;48.770;8.944;2024-03-02T05:08:04;10.80;54.90
31129;DHT22;17777;48.770;8.944;2024-03-02T05:10:30;10.80;54.80
31129;DHT22;17777;48.770;8.944;2024-03-02T05:12:56;10.70;54.80
31129;DHT22;17777;48.770;8.944;2024-03-02T05:15:22;10.80;54.90
31129;DHT22;17777;48.770;8.944;2024-03-02T05:17:48;10.80;54.90
31129;DHT22;17777;48.770;8.944;2024-03-02T05:20:14;10.80;54.90
31129;DHT22;17777;48.770;8.944;2024-03-02T05:22:40;10.80;54.90
31129;DHT22;17777;48.770;8.944;2024-03-02T05:25:06;10.80;54.90
31129;DHT22;17777;48.770;8.944;2024-03-02T05:27:32;10.80;54.80
31129;DHT22;17777;48.770;8.944;2024-03-02T05:29:59;10.80;54.90
31129;DHT22;17777;48.770;8.944;2024-03-02T05:32:25;10.80;54.80
31129;DHT22;17777;48.770;8.944;2024-03-02T05:34:51;10.80;54.80
31129;DHT22;17777;48.770;8.944;2024-03-02T05:37:17;10.80;54.80
31129;DHT22;17777;48.770;8.944;2024-03-02T05:39:43;10.70;54.70
31129;DHT22;17777;48.770;8.944;2024-03-02T05:42:09;10.70;54.80
31129;DHT22;17777;48.770;8.944;2024-03-02T05:44:38;10.70;54.80
31129;DHT22;17777;48.770;8.944;2024-03-02T05:47:05;10.70;54.80
31129;DHT22;17777;48.770;8.944;2024-03-02T05:49:34;10.70;54.80
31129;DHT22;17777;48.770;8.944;2024-03-02T05:52:00;10.70;54.80
31129;DHT22;17777;48.770;8.944;2024-03-02T05:54:26;10.70;54.70
31129;DHT22;17777;48.770;8.944;2024-03-02T05:56:51;10.70;54.70
31129;DHT22;17777;48.770;8.944;2024-03-02T05:59:17;10.70;54.60
31129;DHT22;17777;48.770;8.944;2024-03-02T06:01:47;10.70;54.60
31129;DHT22;17777;48.770;8.944;2024-03-02T06:04:13;10.70;54.60
31129;DHT22;17777;48.770;8.944;2024-03-02T06:06:40;10.70;54.70
31129;DHT22;17777;48.770;8.944;2024-03-02T06:09:07;10.70;54.70
31129;DHT22;17777;48.770;8.944;2024-03-02T06:11:39;10.70;54.60
31129;DHT22;17777;48.770;8.944;2024-03-02T06:14:07;10.70;54.60
31129;DHT22;17777;48.770;8.944;2024-03-02T06:16:33;10.70;54.70
31129;DHT22;17777;48.770;8.944;2024-03-02T06:19:00;10.70;54.70
31129;DHT22;17777;48.770;8.944;2024-03-02T06:21:26;10.70;54.80
31129;DHT22;17777;48.770;8.944;2024-03-02T06:23:53;10.70;54.80
31129;DHT22;17777;48.770;8.944;2024-03-02T06:26:19;10.70;54.80
31129;DHT22;17777;48.770;8.944;2024-03-02T06:28:46;10.70;54.80
31129;DHT22;17777;48.770;8.944;2024-03-02T06:31:12;10.80;54.80
31129;DHT22;17777;48.770;8.944;2024-03-02T06:33:38;10.80;54.80
31129;DHT22;17777;48.770;8.944;2024-03-02T06:36:04;10.80;54.80
31129;DHT22;17777;48.770;8.944;2024-03-02T06:38:30;10.80;54.80
31129;DHT22;17777;48.770;8.944;2024-03-02T06:40:58;10.80;54.80
31129;DHT22;17777;48.770;8.944;2024-03-02T06:43:24;10.90;54.80
31129;DHT22;17777;48.770;8.944;2024-03-02T06:45:51;10.80;54.80
31129;DHT22;17777;48.770;8.944;2024-03-02T06:48:17;10.80;54.70
31129;DHT22;17777;48.770;8.944;2024-03-02T06:50:48;10.90;54.70
31129;DHT22;17777;48.770;8.944;2024-03-02T06:53:15;10.90;54.80
31129;DHT22;17777;48.770;8.944;2024-03-02T06:55:45;10.90;54.70
31129;DHT22;17777;48.770;8.944;2024-03-02T06:58:12;10.90;54.80
31129;DHT22;17777;48.770;8.944;2024-03-02T07:00:38;10.90;54.80
31129;DHT22;17777;48.770;8.944;2024-03-02T07:03:04;10.90;54.80
31129;DHT22;17777;48.770;8.944;2024-03-02T07:05:30;10.90;54.80
31129;DHT22;17777;48.770;8.944;2024-03-02T07:07:56;10.90;54.80
31129;DHT22;17777;48.770;8.944;2024-03-02T07:10:22;10.90;54.80
31129;DHT22;17777;48.770;8.944;2024-03-02T07:12:48;10.90;54.80
31129;DHT22;17777;48.770;8.944;2024-03-02T07:15:14;10.90;54.80
31129;DHT22;17777;48.770;8.944;2024-03-02T07:17:58;10.90;54.80
31129;DHT22;17777;48.770;8.944;2024-03-02T07:20:24;10.90;54.80
31129;DHT22;17777;48.770;8.944;2024-03-02T07:22:50;10.90;54.90
31129;DHT22;17777;48.770;8.944;2024-03-02T07:25:16;10.90;54.90
31129;DHT22;17777;48.770;8.944;2024-03-02T07:27:42;10.90;55.00
31129;DHT22;17777;48.770;8.944;2024-03-02T07:30:09;10.90;55.10
31129;DHT22;17777;48.770;8.944;2024-03-02T07:32:37;10.90;55.10
31129;DHT22;17777;48.770;8.944;2024-03-02T07:35:02;10.90;55.10
31129;DHT22;17777;48.770;8.944;2024-03-02T07:37:29;10.90;55.10
31129;DHT22;17777;48.770;8.944;2024-03-02T07:39:55;10.90;55.20
31129;DHT22;17777;48.770;8.944;2024-03-02T07:42:20;10.90;55.20
31129;DHT22;17777;48.770;8.944;2024-03-02T07:44:46;10.90;55.30
31129;DHT22;17777;48.770;8.944;2024-03-02T07:47:12;10.80;55.30
31129;DHT22;17777;48.770;8.944;2024-03-02T07:49:38;10.90;55.30
31129;DHT22;17777;48.770;8.944;2024-03-02T07:52:04;10.90;55.40
31129;DHT22;17777;48.770;8.944;2024-03-02T07:54:30;10.80;55.40
31129;DHT22;17777;48.770;8.944;2024-03-02T07:56:55;10.90;55.40
31129;DHT22;17777;48.770;8.944;2024-03-02T07:59:21;10.90;55.40
31129;DHT22;17777;48.770;8.944;2024-03-02T08:01:49;10.90;55.40
31129;DHT22;17777;48.770;8.944;2024-03-02T08:04:15;10.90;55.50
31129;DHT22;17777;48.770;8.944;2024-03-02T08:06:41;11.00;55.50
31129;DHT22;17777;48.770;8.944;2024-03-02T08:09:07;11.00;55.90
31129;DHT22;17777;48.770;8.944;2024-03-02T08:11:36;11.00;56.30
31129;DHT22;17777;48.770;8.944;2024-03-02T08:14:03;11.10;56.30
31129;DHT22;17777;48.770;8.944;2024-03-02T08:16:29;11.20;56.20
31129;DHT22;17777;48.770;8.944;2024-03-02T08:18:54;11.30;56.20
31129;DHT22;17777;48.770;8.944;2024-03-02T08:21:23;11.40;56.20
31129;DHT22;17777;48.770;8.944;2024-03-02T08:23:50;11.50;56.10
31129;DHT22;17777;48.770;8.944;2024-03-02T08:26:16;11.60;56.20
31129;DHT22;17777;48.770;8.944;2024-03-02T08:28:42;11.60;56.20
31129;DHT22;17777;48.770;8.944;2024-03-02T08:31:08;11.70;56.20
31129;DHT22;17777;48.770;8.944;2024-03-02T08:33:34;11.70;56.30
31129;DHT22;17777;48.770;8.944;2024-03-02T08:36:00;11.80;56.40
31129;DHT22;17777;48.770;8.944;2024-03-02T08:38:26;11.90;56.40
31129;DHT22;17777;48.770;8.944;2024-03-02T08:40:53;12.00;56.40
31129;DHT22;17777;48.770;8.944;2024-03-02T08:43:19;12.10;56.40
31129;DHT22;17777;48.770;8.944;2024-03-02T08:45:45;12.20;56.30
31129;DHT22;17777;48.770;8.944;2024-03-02T08:48:12;12.30;56.40
31129;DHT22;17777;48.770;8.944;2024-03-02T08:50:38;12.40;56.30
31129;DHT22;17777;48.770;8.944;2024-03-02T08:53:04;12.50;56.10
31129;DHT22;17777;48.770;8.944;2024-03-02T08:55:30;12.70;56.10
31129;DHT22;17777;48.770;8.944;2024-03-02T08:57:56;12.80;55.90
31129;DHT22;17777;48.770;8.944;2024-03-02T09:00:23;12.90;55.80
31129;DHT22;17777;48.770;8.944;2024-03-02T09:02:49;13.00;55.70
31129;DHT22;17777;48.770;8.944;2024-03-02T09:05:15;13.10;55.60
31129;DHT22;17777;48.770;8.944;2024-03-02T09:07:41;13.20;55.40
31129;DHT22;17777;48.770;8.944;2024-03-02T09:10:08;13.30;55.20
31129;DHT22;17777;48.770;8.944;2024-03-02T09:12:35;13.50;55.10
31129;DHT22;17777;48.770;8.944;2024-03-02T09:15:04;13.60;55.00
31129;DHT22;17777;48.770;8.944;2024-03-02T09:17:31;13.70;54.90
31129;DHT22;17777;48.770;8.944;2024-03-02T09:19:57;13.90;54.80
31129;DHT22;17777;48.770;8.944;2024-03-02T09:22:23;14.00;54.60
31129;DHT22;17777;48.770;8.944;2024-03-02T09:24:49;14.10;54.40
31129;DHT22;17777;48.770;8.944;2024-03-02T09:27:14;14.20;54.30
31129;DHT22;17777;48.770;8.944;2024-03-02T09:29:40;14.30;54.70
31129;DHT22;17777;48.770;8.944;2024-03-02T09:32:08;14.40;53.90
31129;DHT22;17777;48.770;8.944;2024-03-02T09:34:37;14.50;53.70
31129;DHT22;17777;48.770;8.944;2024-03-02T09:37:03;14.60;53.40
31129;DHT22;17777;48.770;8.944;2024-03-02T09:39:30;14.70;53.30
31129;DHT22;17777;48.770;8.944;2024-03-02T09:41:56;14.80;53.40
31129;DHT22;17777;48.770;8.944;2024-03-02T09:44:23;14.90;53.30
31129;DHT22;17777;48.770;8.944;2024-03-02T09:46:51;15.00;53.10
31129;DHT22;17777;48.770;8.944;2024-03-02T09:49:17;15.10;53.00
31129;DHT22;17777;48.770;8.944;2024-03-02T09:51:48;15.20;53.00
31129;DHT22;17777;48.770;8.944;2024-03-02T09:54:15;15.20;52.60
31129;DHT22;17777;48.770;8.944;2024-03-02T09:56:41;15.30;52.70
31129;DHT22;17777;48.770;8.944;2024-03-02T09:59:08;15.40;52.50
31129;DHT22;17777;48.770;8.944;2024-03-02T10:01:33;15.50;52.50
31129;DHT22;17777;48.770;8.944;2024-03-02T10:03:59;15.60;52.20
31129;DHT22;17777;48.770;8.944;2024-03-02T10:06:27;15.70;52.10
31129;DHT22;17777;48.770;8.944;2024-03-02T10:08:54;15.70;51.80
31129;DHT22;17777;48.770;8.944;2024-03-02T10:11:31;15.80;51.80
31129;DHT22;17777;48.770;8.944;2024-03-02T10:14:13;15.90;51.60
31129;DHT22;17777;48.770;8.944;2024-03-02T10:16:44;16.00;51.40
31129;DHT22;17777;48.770;8.944;2024-03-02T10:19:18;16.00;51.20
31129;DHT22;17777;48.770;8.944;2024-03-02T10:21:49;16.10;50.90
31129;DHT22;17777;48.770;8.944;2024-03-02T10:24:18;16.10;51.00
31129;DHT22;17777;48.770;8.944;2024-03-02T10:26:44;16.20;51.10
31129;DHT22;17777;48.770;8.944;2024-03-02T10:29:11;16.30;51.00
31129;DHT22;17777;48.770;8.944;2024-03-02T10:31:38;16.40;50.70
31129;DHT22;17777;48.770;8.944;2024-03-02T10:34:06;16.50;51.00
31129;DHT22;17777;48.770;8.944;2024-03-02T10:36:33;16.60;51.20
31129;DHT22;17777;48.770;8.944;2024-03-02T10:39:04;16.70;51.10
31129;DHT22;17777;48.770;8.944;2024-03-02T10:41:35;16.80;50.60
31129;DHT22;17777;48.770;8.944;2024-03-02T10:44:04;16.90;50.30
31129;DHT22;17777;48.770;8.944;2024-03-02T10:46:34;17.00;50.50
31129;DHT22;17777;48.770;8.944;2024-03-02T10:49:02;17.10;50.30
31129;DHT22;17777;48.770;8.944;2024-03-02T10:51:31;17.10;50.30
31129;DHT22;17777;48.770;8.944;2024-03-02T10:54:01;17.20;50.00
31129;DHT22;17777;48.770;8.944;2024-03-02T10:56:42;17.40;49.80
31129;DHT22;17777;48.770;8.944;2024-03-02T11:02:00;17.50;49.00
31129;DHT22;17777;48.770;8.944;2024-03-02T11:04:29;17.60;49.60
31129;DHT22;17777;48.770;8.944;2024-03-02T11:09:28;17.80;48.60
31129;DHT22;17777;48.770;8.944;2024-03-02T11:14:51;18.00;48.10
31129;DHT22;17777;48.770;8.944;2024-03-02T11:17:20;18.10;48.30
31129;DHT22;17777;48.770;8.944;2024-03-02T11:19:46;18.20;47.90
31129;DHT22;17777;48.770;8.944;2024-03-02T11:22:13;18.20;47.60
31129;DHT22;17777;48.770;8.944;2024-03-02T11:24:48;18.30;47.30
31129;DHT22;17777;48.770;8.944;2024-03-02T11:27:14;18.40;46.50
31129;DHT22;17777;48.770;8.944;2024-03-02T11:33:05;18.50;46.00
31129;DHT22;17777;48.770;8.944;2024-03-02T11:35:41;18.50;47.00
31129;DHT22;17777;48.770;8.944;2024-03-02T11:38:14;18.60;46.60
31129;DHT22;17777;48.770;8.944;2024-03-02T11:40:40;18.70;46.80
31129;DHT22;17777;48.770;8.944;2024-03-02T11:43:06;18.70;47.00
31129;DHT22;17777;48.770;8.944;2024-03-02T11:45:36;18.80;46.60
31129;DHT22;17777;48.770;8.944;2024-03-02T11:48:06;18.80;46.70
31129;DHT22;17777;48.770;8.944;2024-03-02T11:50:42;18.80;45.80
31129;DHT22;17777;48.770;8.944;2024-03-02T11:53:12;18.90;46.20
31129;DHT22;17777;48.770;8.944;2024-03-02T11:55:39;19.00;46.40
31129;DHT22;17777;48.770;8.944;2024-03-02T11:58:15;19.10;46.30
31129;DHT22;17777;48.770;8.944;2024-03-02T12:00:54;19.10;45.90
31129;DHT22;17777;48.770;8.944;2024-03-02T12:03:22;19.20;45.50
31129;DHT22;17777;48.770;8.944;2024-03-02T12:05:50;19.30;45.30
31129;DHT22;17777;48.770;8.944;2024-03-02T12:08:17;19.30;45.40
31129;DHT22;17777;48.770;8.944;2024-03-02T12:10:42;19.40;45.40
31129;DHT22;17777;48.770;8.944;2024-03-02T12:13:10;19.40;45.20
31129;DHT22;17777;48.770;8.944;2024-03-02T12:15:38;19.60;44.60
31129;DHT22;17777;48.770;8.944;2024-03-02T12:18:04;19.60;45.00
31129;DHT22;17777;48.770;8.944;2024-03-02T12:20:32;19.60;44.70
31129;DHT22;17777;48.770;8.944;2024-03-02T12:23:04;19.70;44.90
31129;DHT22;17777;48.770;8.944;2024-03-02T12:25:31;19.70;44.80
31129;DHT22;17777;48.770;8.944;2024-03-02T12:28:00;19.80;44.60
31129;DHT22;17777;48.770;8.944;2024-03-02T12:30:30;19.90;44.00
31129;DHT22;17777;48.770;8.944;2024-03-02T12:32:58;20.00;44.10
31129;DHT22;17777;48.770;8.944;2024-03-02T12:35:25;20.00;44.00
31129;DHT22;17777;48.770;8.944;2024-03-02T12:37:52;20.00;43.50
31129;DHT22;17777;48.770;8.944;2024-03-02T12:40:20;20.10;43.50
31129;DHT22;17777;48.770;8.944;2024-03-02T12:42:48;20.20;43.60
31129;DHT22;17777;48.770;8.944;2024-03-02T12:45:15;20.30;43.50
31129;DHT22;17777;48.770;8.944;2024-03-02T12:47:42;20.30;43.10
31129;DHT22;17777;48.770;8.944;2024-03-02T12:50:09;20.40;42.90
31129;DHT22;17777;48.770;8.944;2024-03-02T12:52:35;20.50;43.20
31129;DHT22;17777;48.770;8.944;2024-03-02T12:55:04;20.60;43.30
31129;DHT22;17777;48.770;8.944;2024-03-02T12:57:31;20.60;43.10
31129;DHT22;17777;48.770;8.944;2024-03-02T13:00:07;20.70;42.60
31129;DHT22;17777;48.770;8.944;2024-03-02T13:02:36;20.80;42.00
31129;DHT22;17777;48.770;8.944;2024-03-02T13:05:02;20.80;42.50
31129;DHT22;17777;48.770;8.944;2024-03-02T13:07:29;20.90;42.70
31129;DHT22;17777;48.770;8.944;2024-03-02T13:09:56;21.00;42.10
31129;DHT22;17777;48.770;8.944;2024-03-02T13:12:24;21.00;41.80
31129;DHT22;17777;48.770;8.944;2024-03-02T13:14:54;21.10;41.40
31129;DHT22;17777;48.770;8.944;2024-03-02T13:17:20;21.10;41.00
31129;DHT22;17777;48.770;8.944;2024-03-02T13:19:53;21.10;41.60
31129;DHT22;17777;48.770;8.944;2024-03-02T13:22:21;21.20;41.00
31129;DHT22;17777;48.770;8.944;2024-03-02T13:24:50;21.20;41.70
31129;DHT22;17777;48.770;8.944;2024-03-02T13:27:16;21.20;41.50
31129;DHT22;17777;48.770;8.944;2024-03-02T13:29:48;21.20;41.50
31129;DHT22;17777;48.770;8.944;2024-03-02T13:32:15;21.30;40.70
31129;DHT22;17777;48.770;8.944;2024-03-02T13:34:44;21.30;41.10
31129;DHT22;17777;48.770;8.944;2024-03-02T13:37:10;21.30;40.50
31129;DHT22;17777;48.770;8.944;2024-03-02T13:39:37;21.20;40.50
31129;DHT22;17777;48.770;8.944;2024-03-02T13:42:10;21.20;40.90
31129;DHT22;17777;48.770;8.944;2024-03-02T13:44:39;21.20;40.60
31129;DHT22;17777;48.770;8.944;2024-03-02T13:47:05;21.20;40.70
31129;DHT22;17777;48.770;8.944;2024-03-02T13:49:31;21.10;40.50
31129;DHT22;17777;48.770;8.944;2024-03-02T13:52:05;21.00;40.50
31129;DHT22;17777;48.770;8.944;2024-03-02T13:54:43;21.00;40.30
31129;DHT22;17777;48.770;8.944;2024-03-02T13:57:10;20.90;40.10
31129;DHT22;17777;48.770;8.944;2024-03-02T13:59:37;20.80;40.50
31129;DHT22;17777;48.770;8.944;2024-03-02T14:02:05;20.70;40.50
31129;DHT22;17777;48.770;8.944;2024-03-02T14:04:35;20.70;40.50
31129;DHT22;17777;48.770;8.944;2024-03-02T14:07:02;20.70;40.20
31129;DHT22;17777;48.770;8.944;2024-03-02T14:09:28;20.60;40.30
31129;DHT22;17777;48.770;8.944;2024-03-02T14:11:56;20.60;40.60
31129;DHT22;17777;48.770;8.944;2024-03-02T14:14:22;20.50;40.40
31129;DHT22;17777;48.770;8.944;2024-03-02T14:16:48;20.50;40.50
31129;DHT22;17777;48.770;8.944;2024-03-02T14:19:14;20.50;40.60
31129;DHT22;17777;48.770;8.944;2024-03-02T14:21:40;20.50;40.70
31129;DHT22;17777;48.770;8.944;2024-03-02T14:24:06;20.60;40.70
31129;DHT22;17777;48.770;8.944;2024-03-02T14:26:33;20.60;40.60
31129;DHT22;17777;48.770;8.944;2024-03-02T14:28:59;20.60;40.70
31129;DHT22;17777;48.770;8.944;2024-03-02T14:31:27;20.60;40.50
31129;DHT22;17777;48.770;8.944;2024-03-02T14:33:54;20.70;40.60
31129;DHT22;17777;48.770;8.944;2024-03-02T14:36:20;20.70;40.40
31129;DHT22;17777;48.770;8.944;2024-03-02T14:38:46;20.70;40.30
31129;DHT22;17777;48.770;8.944;2024-03-02T14:41:12;20.70;40.20
31129;DHT22;17777;48.770;8.944;2024-03-02T14:43:38;20.70;40.30
31129;DHT22;17777;48.770;8.944;2024-03-02T14:46:05;20.80;39.80
31129;DHT22;17777;48.770;8.944;2024-03-02T14:48:35;20.80;39.90
31129;DHT22;17777;48.770;8.944;2024-03-02T14:51:04;20.70;39.80
31129;DHT22;17777;48.770;8.944;2024-03-02T14:53:30;20.80;39.70
31129;DHT22;17777;48.770;8.944;2024-03-02T14:55:56;20.80;39.80
31129;DHT22;17777;48.770;8.944;2024-03-02T14:58:22;20.80;39.90
31129;DHT22;17777;48.770;8.944;2024-03-02T15:00:47;20.80;39.80
31129;DHT22;17777;48.770;8.944;2024-03-02T15:03:13;20.80;39.70
31129;DHT22;17777;48.770;8.944;2024-03-02T15:05:39;20.80;39.80
31129;DHT22;17777;48.770;8.944;2024-03-02T15:08:05;20.80;39.80
31129;DHT22;17777;48.770;8.944;2024-03-02T15:10:32;20.80;39.80
31129;DHT22;17777;48.770;8.944;2024-03-02T15:12:58;20.90;39.90
31129;DHT22;17777;48.770;8.944;2024-03-02T15:15:24;20.90;39.80
31129;DHT22;17777;48.770;8.944;2024-03-02T15:17:50;20.90;39.80
31129;DHT22;17777;48.770;8.944;2024-03-02T15:20:18;20.80;39.70
31129;DHT22;17777;48.770;8.944;2024-03-02T15:22:45;20.80;39.60
31129;DHT22;17777;48.770;8.944;2024-03-02T15:25:11;20.80;39.70
31129;DHT22;17777;48.770;8.944;2024-03-02T15:27:37;20.80;39.60
31129;DHT22;17777;48.770;8.944;2024-03-02T15:30:04;20.70;39.60
31129;DHT22;17777;48.770;8.944;2024-03-02T15:32:30;20.70;39.60
31129;DHT22;17777;48.770;8.944;2024-03-02T15:34:56;20.60;39.60
31129;DHT22;17777;48.770;8.944;2024-03-02T15:37:23;20.60;39.60
31129;DHT22;17777;48.770;8.944;2024-03-02T15:39:48;20.50;39.60
31129;DHT22;17777;48.770;8.944;2024-03-02T15:42:14;20.50;39.70
31129;DHT22;17777;48.770;8.944;2024-03-02T15:44:40;20.40;39.80
31129;DHT22;17777;48.770;8.944;2024-03-02T15:47:06;20.40;39.90
31129;DHT22;17777;48.770;8.944;2024-03-02T15:49:33;20.30;39.90